Terminal Aerodrome Forecast
Issued by NWS

Home | Current Version | Previous Version | Text Only | Print | Product List | Glossary On
Versions: 1 2 3 4 5 6 7 8 9 10 11 12 13 14 15 16 17 18 19 20 21
337
FTUS41 KGYX 242320
TAFPSM
TAF
KPSM 242320Z 2500/2524 16004KT 6SM BR FEW090 FEW250 WS020/24040KT
     FM250400 17004KT 2SM BR BKN003 BKN008 WS020/24040KT
     FM250700 18004KT 1/2SM FG BKN001 BKN003 WS020/24040KT
     FM251500 15007KT 3SM BR BKN001 BKN003
     FM251600 15007KT P6SM BKN003
     FM251800 14007KT P6SM BKN008=

USA.gov is the U.S. government's official web portal to all federal, state and local government web resources and services.